sensor_id;sensor_type;location;lat;lon;timestamp;temperature;humidity
10089;DHT22;51898;49.864;8.550;2023-04-09T00:01:50;6.10;81.90
10089;DHT22;51898;49.864;8.550;2023-04-09T00:04:52;6.10;82.00
10089;DHT22;51898;49.864;8.550;2023-04-09T00:07:54;6.10;82.30
10089;DHT22;51898;49.864;8.550;2023-04-09T00:10:56;6.10;82.30
10089;DHT22;51898;49.864;8.550;2023-04-09T00:13:58;6.00;82.50
10089;DHT22;51898;49.864;8.550;2023-04-09T00:17:00;6.00;82.70
10089;DHT22;51898;49.864;8.550;2023-04-09T00:20:02;6.00;83.00
10089;DHT22;51898;49.864;8.550;2023-04-09T00:23:04;6.00;83.20
10089;DHT22;51898;49.864;8.550;2023-04-09T00:26:06;6.00;83.20
10089;DHT22;51898;49.864;8.550;2023-04-09T00:29:08;6.00;83.60
10089;DHT22;51898;49.864;8.550;2023-04-09T00:32:09;5.90;83.70
10089;DHT22;51898;49.864;8.550;2023-04-09T00:35:11;6.00;83.60
10089;DHT22;51898;49.864;8.550;2023-04-09T00:38:13;5.90;83.70
10089;DHT22;51898;49.864;8.550;2023-04-09T00:41:16;5.90;83.50
10089;DHT22;51898;49.864;8.550;2023-04-09T00:44:18;5.90;83.60
10089;DHT22;51898;49.864;8.550;2023-04-09T00:47:20;5.90;83.70
10089;DHT22;51898;49.864;8.550;2023-04-09T00:50:22;5.90;84.00
10089;DHT22;51898;49.864;8.550;2023-04-09T00:53:24;5.90;84.00
10089;DHT22;51898;49.864;8.550;2023-04-09T00:56:27;5.90;83.90
10089;DHT22;51898;49.864;8.550;2023-04-09T00:59:30;5.90;84.00
10089;DHT22;51898;49.864;8.550;2023-04-09T01:02:33;5.80;84.40
10089;DHT22;51898;49.864;8.550;2023-04-09T01:12:51;5.60;84.90
10089;DHT22;51898;49.864;8.550;2023-04-09T01:15:57;5.50;85.50
10089;DHT22;51898;49.864;8.550;2023-04-09T01:19:05;5.40;85.80
10089;DHT22;51898;49.864;8.550;2023-04-09T01:22:28;5.30;86.20
10089;DHT22;51898;49.864;8.550;2023-04-09T01:28:52;5.10;87.20
10089;DHT22;51898;49.864;8.550;2023-04-09T01:31:55;5.00;87.80
10089;DHT22;51898;49.864;8.550;2023-04-09T01:34:57;5.00;87.70
10089;DHT22;51898;49.864;8.550;2023-04-09T01:37:59;4.90;87.70
10089;DHT22;51898;49.864;8.550;2023-04-09T01:41:03;4.90;87.60
10089;DHT22;51898;49.864;8.550;2023-04-09T01:44:06;4.90;87.70
10089;DHT22;51898;49.864;8.550;2023-04-09T01:47:09;4.90;87.90
10089;DHT22;51898;49.864;8.550;2023-04-09T01:50:11;4.90;88.10
10089;DHT22;51898;49.864;8.550;2023-04-09T01:53:13;4.80;88.40
10089;DHT22;51898;49.864;8.550;2023-04-09T01:56:15;4.80;88.40
10089;DHT22;51898;49.864;8.550;2023-04-09T01:59:16;4.70;88.30
10089;DHT22;51898;49.864;8.550;2023-04-09T02:02:26;4.70;88.30
10089;DHT22;51898;49.864;8.550;2023-04-09T02:05:31;4.70;88.80
10089;DHT22;51898;49.864;8.550;2023-04-09T02:08:36;4.70;88.60
10089;DHT22;51898;49.864;8.550;2023-04-09T02:11:40;4.60;88.60
10089;DHT22;51898;49.864;8.550;2023-04-09T02:14:45;4.60;88.60
10089;DHT22;51898;49.864;8.550;2023-04-09T02:17:47;4.60;88.70
10089;DHT22;51898;49.864;8.550;2023-04-09T02:20:49;4.60;88.50
10089;DHT22;51898;49.864;8.550;2023-04-09T02:23:50;4.50;88.80
10089;DHT22;51898;49.864;8.550;2023-04-09T02:26:52;4.50;88.80
10089;DHT22;51898;49.864;8.550;2023-04-09T02:29:54;4.40;89.20
10089;DHT22;51898;49.864;8.550;2023-04-09T02:32:56;4.40;89.20
10089;DHT22;51898;49.864;8.550;2023-04-09T02:35:57;4.40;89.10
10089;DHT22;51898;49.864;8.550;2023-04-09T02:38:59;4.30;89.20
10089;DHT22;51898;49.864;8.550;2023-04-09T02:42:00;4.30;89.30
10089;DHT22;51898;49.864;8.550;2023-04-09T02:45:02;4.20;89.80
10089;DHT22;51898;49.864;8.550;2023-04-09T02:48:04;4.10;90.20
10089;DHT22;51898;49.864;8.550;2023-04-09T02:51:06;4.10;90.30
10089;DHT22;51898;49.864;8.550;2023-04-09T02:54:08;4.10;90.40
10089;DHT22;51898;49.864;8.550;2023-04-09T02:57:10;4.00;90.40
10089;DHT22;51898;49.864;8.550;2023-04-09T03:00:12;4.00;90.20
10089;DHT22;51898;49.864;8.550;2023-04-09T03:03:14;3.90;90.10
10089;DHT22;51898;49.864;8.550;2023-04-09T03:06:16;3.90;90.00
10089;DHT22;51898;49.864;8.550;2023-04-09T03:09:18;3.80;89.90
10089;DHT22;51898;49.864;8.550;2023-04-09T03:12:20;3.80;90.20
10089;DHT22;51898;49.864;8.550;2023-04-09T03:15:22;3.70;90.60
10089;DHT22;51898;49.864;8.550;2023-04-09T03:18:23;3.60;90.50
10089;DHT22;51898;49.864;8.550;2023-04-09T03:21:25;3.60;91.00
10089;DHT22;51898;49.864;8.550;2023-04-09T03:24:27;3.60;91.00
10089;DHT22;51898;49.864;8.550;2023-04-09T03:27:30;3.60;91.30
10089;DHT22;51898;49.864;8.550;2023-04-09T03:30:32;3.60;91.70
10089;DHT22;51898;49.864;8.550;2023-04-09T03:33:33;3.50;91.60
10089;DHT22;51898;49.864;8.550;2023-04-09T03:36:35;3.50;91.70
10089;DHT22;51898;49.864;8.550;2023-04-09T03:39:37;3.50;91.70
10089;DHT22;51898;49.864;8.550;2023-04-09T03:42:40;3.50;92.10
10089;DHT22;51898;49.864;8.550;2023-04-09T03:45:42;3.50;92.00
10089;DHT22;51898;49.864;8.550;2023-04-09T03:48:44;3.50;92.10
10089;DHT22;51898;49.864;8.550;2023-04-09T03:51:46;3.50;92.20
10089;DHT22;51898;49.864;8.550;2023-04-09T03:54:47;3.50;92.30
10089;DHT22;51898;49.864;8.550;2023-04-09T03:57:49;3.50;92.20
10089;DHT22;51898;49.864;8.550;2023-04-09T04:00:51;3.40;92.40
10089;DHT22;51898;49.864;8.550;2023-04-09T04:03:52;3.40;92.40
10089;DHT22;51898;49.864;8.550;2023-04-09T04:06:54;3.40;92.40
10089;DHT22;51898;49.864;8.550;2023-04-09T04:09:56;3.30;92.80
10089;DHT22;51898;49.864;8.550;2023-04-09T04:12:57;3.30;92.80
10089;DHT22;51898;49.864;8.550;2023-04-09T04:15:59;3.20;92.80
10089;DHT22;51898;49.864;8.550;2023-04-09T04:19:01;3.20;92.90
10089;DHT22;51898;49.864;8.550;2023-04-09T04:22:02;3.20;93.10
10089;DHT22;51898;49.864;8.550;2023-04-09T04:25:04;3.20;93.30
10089;DHT22;51898;49.864;8.550;2023-04-09T04:28:06;3.20;93.40
10089;DHT22;51898;49.864;8.550;2023-04-09T04:31:09;3.20;93.20
10089;DHT22;51898;49.864;8.550;2023-04-09T04:34:13;3.10;93.40
10089;DHT22;51898;49.864;8.550;2023-04-09T04:37:15;3.10;93.50
10089;DHT22;51898;49.864;8.550;2023-04-09T04:40:17;3.10;93.50
10089;DHT22;51898;49.864;8.550;2023-04-09T04:43:18;3.10;93.50
10089;DHT22;51898;49.864;8.550;2023-04-09T04:46:20;3.10;93.20
10089;DHT22;51898;49.864;8.550;2023-04-09T04:49:22;3.10;93.40
10089;DHT22;51898;49.864;8.550;2023-04-09T04:52:23;3.10;93.50
10089;DHT22;51898;49.864;8.550;2023-04-09T04:55:25;3.20;93.50
10089;DHT22;51898;49.864;8.550;2023-04-09T04:58:27;3.20;93.20
10089;DHT22;51898;49.864;8.550;2023-04-09T05:01:28;3.20;93.20
10089;DHT22;51898;49.864;8.550;2023-04-09T05:04:30;3.20;93.40
10089;DHT22;51898;49.864;8.550;2023-04-09T05:07:32;3.20;93.50
10089;DHT22;51898;49.864;8.550;2023-04-09T05:10:34;3.30;93.40
10089;DHT22;51898;49.864;8.550;2023-04-09T05:13:35;3.30;93.50
10089;DHT22;51898;49.864;8.550;2023-04-09T05:16:37;3.40;93.80
10089;DHT22;51898;49.864;8.550;2023-04-09T05:19:39;3.50;93.60
10089;DHT22;51898;49.864;8.550;2023-04-09T05:22:40;3.60;93.30
10089;DHT22;51898;49.864;8.550;2023-04-09T05:25:42;3.70;93.10
10089;DHT22;51898;49.864;8.550;2023-04-09T05:28:44;3.80;92.70
10089;DHT22;51898;49.864;8.550;2023-04-09T05:31:45;3.90;92.30
10089;DHT22;51898;49.864;8.550;2023-04-09T05:34:47;4.00;91.90
10089;DHT22;51898;49.864;8.550;2023-04-09T05:37:49;4.10;91.40
10089;DHT22;51898;49.864;8.550;2023-04-09T05:40:50;4.20;90.90
10089;DHT22;51898;49.864;8.550;2023-04-09T05:43:52;4.20;90.50
10089;DHT22;51898;49.864;8.550;2023-04-09T05:46:54;4.30;90.40
10089;DHT22;51898;49.864;8.550;2023-04-09T05:49:55;4.30;90.30
10089;DHT22;51898;49.864;8.550;2023-04-09T05:52:57;4.30;90.20
10089;DHT22;51898;49.864;8.550;2023-04-09T05:55:59;4.40;90.00
10089;DHT22;51898;49.864;8.550;2023-04-09T05:59:00;4.40;90.10
10089;DHT22;51898;49.864;8.550;2023-04-09T06:02:02;4.50;90.00
10089;DHT22;51898;49.864;8.550;2023-04-09T06:05:04;4.50;90.00
10089;DHT22;51898;49.864;8.550;2023-04-09T06:08:06;4.50;90.00
10089;DHT22;51898;49.864;8.550;2023-04-09T06:11:08;4.60;89.90
10089;DHT22;51898;49.864;8.550;2023-04-09T06:14:10;4.70;89.90
10089;DHT22;51898;49.864;8.550;2023-04-09T06:17:18;4.70;89.70
10089;DHT22;51898;49.864;8.550;2023-04-09T06:20:19;4.80;89.70
10089;DHT22;51898;49.864;8.550;2023-04-09T06:23:21;5.00;89.30
10089;DHT22;51898;49.864;8.550;2023-04-09T06:26:23;5.10;89.20
10089;DHT22;51898;49.864;8.550;2023-04-09T06:29:25;5.20;88.80
10089;DHT22;51898;49.864;8.550;2023-04-09T06:32:26;5.30;88.40
10089;DHT22;51898;49.864;8.550;2023-04-09T06:35:28;5.50;87.90
10089;DHT22;51898;49.864;8.550;2023-04-09T06:38:29;5.70;87.30
10089;DHT22;51898;49.864;8.550;2023-04-09T06:41:31;5.80;87.60
10089;DHT22;51898;49.864;8.550;2023-04-09T06:44:34;6.20;86.90
10089;DHT22;51898;49.864;8.550;2023-04-09T06:47:36;6.50;85.50
10089;DHT22;51898;49.864;8.550;2023-04-09T06:50:38;6.90;84.60
10089;DHT22;51898;49.864;8.550;2023-04-09T06:53:39;7.20;82.70
10089;DHT22;51898;49.864;8.550;2023-04-09T06:56:41;7.10;82.00
10089;DHT22;51898;49.864;8.550;2023-04-09T06:59:43;7.10;81.70
10089;DHT22;51898;49.864;8.550;2023-04-09T07:02:44;7.00;82.00
10089;DHT22;51898;49.864;8.550;2023-04-09T07:05:47;6.90;82.30
10089;DHT22;51898;49.864;8.550;2023-04-09T07:08:49;6.80;82.70
10089;DHT22;51898;49.864;8.550;2023-04-09T07:11:51;6.90;83.00
10089;DHT22;51898;49.864;8.550;2023-04-09T07:14:55;7.00;82.60
10089;DHT22;51898;49.864;8.550;2023-04-09T07:17:57;7.10;82.50
10089;DHT22;51898;49.864;8.550;2023-04-09T07:20:59;7.20;82.00
10089;DHT22;51898;49.864;8.550;2023-04-09T07:24:00;7.30;81.40
10089;DHT22;51898;49.864;8.550;2023-04-09T07:27:03;7.50;81.20
10089;DHT22;51898;49.864;8.550;2023-04-09T07:30:05;7.60;80.20
10089;DHT22;51898;49.864;8.550;2023-04-09T07:33:06;7.80;79.80
10089;DHT22;51898;49.864;8.550;2023-04-09T07:36:08;8.00;78.50
10089;DHT22;51898;49.864;8.550;2023-04-09T07:39:10;8.10;77.80
10089;DHT22;51898;49.864;8.550;2023-04-09T07:42:12;8.20;77.60
10089;DHT22;51898;49.864;8.550;2023-04-09T07:45:14;8.40;77.50
10089;DHT22;51898;49.864;8.550;2023-04-09T07:48:16;8.40;77.30
10089;DHT22;51898;49.864;8.550;2023-04-09T07:51:17;8.50;77.10
10089;DHT22;51898;49.864;8.550;2023-04-09T07:54:19;8.70;77.00
10089;DHT22;51898;49.864;8.550;2023-04-09T07:57:24;8.90;76.60
10089;DHT22;51898;49.864;8.550;2023-04-09T08:00:25;9.00;75.70
10089;DHT22;51898;49.864;8.550;2023-04-09T08:03:27;9.10;75.50
10089;DHT22;51898;49.864;8.550;2023-04-09T08:06:29;9.40;74.80
10089;DHT22;51898;49.864;8.550;2023-04-09T08:09:31;9.60;73.70
10089;DHT22;51898;49.864;8.550;2023-04-09T08:12:33;9.90;73.70
10089;DHT22;51898;49.864;8.550;2023-04-09T08:15:34;10.10;71.90
10089;DHT22;51898;49.864;8.550;2023-04-09T08:18:36;10.20;72.40
10089;DHT22;51898;49.864;8.550;2023-04-09T08:21:38;10.30;72.50
10089;DHT22;51898;49.864;8.550;2023-04-09T08:24:43;10.60;72.60
10089;DHT22;51898;49.864;8.550;2023-04-09T08:27:45;10.60;72.00
10089;DHT22;51898;49.864;8.550;2023-04-09T08:30:46;10.80;70.70
10089;DHT22;51898;49.864;8.550;2023-04-09T08:33:49;10.90;69.60
10089;DHT22;51898;49.864;8.550;2023-04-09T08:36:50;11.10;68.00
10089;DHT22;51898;49.864;8.550;2023-04-09T08:39:52;11.20;67.40
10089;DHT22;51898;49.864;8.550;2023-04-09T08:42:55;11.50;66.10
10089;DHT22;51898;49.864;8.550;2023-04-09T08:45:57;11.60;65.60
10089;DHT22;51898;49.864;8.550;2023-04-09T08:49:00;11.60;64.50
10089;DHT22;51898;49.864;8.550;2023-04-09T08:52:02;11.60;62.70
10089;DHT22;51898;49.864;8.550;2023-04-09T08:55:04;11.40;63.00
10089;DHT22;51898;49.864;8.550;2023-04-09T08:58:06;11.30;63.70
10089;DHT22;51898;49.864;8.550;2023-04-09T09:01:18;11.10;64.20
10089;DHT22;51898;49.864;8.550;2023-04-09T09:04:20;11.00;64.30
10089;DHT22;51898;49.864;8.550;2023-04-09T09:07:22;11.10;65.10
10089;DHT22;51898;49.864;8.550;2023-04-09T09:10:42;11.50;63.40
10089;DHT22;51898;49.864;8.550;2023-04-09T09:13:45;11.50;63.30
10089;DHT22;51898;49.864;8.550;2023-04-09T09:17:05;11.80;62.80
10089;DHT22;51898;49.864;8.550;2023-04-09T09:20:18;12.30;63.00
10089;DHT22;51898;49.864;8.550;2023-04-09T09:23:33;12.60;60.50
10089;DHT22;51898;49.864;8.550;2023-04-09T09:26:37;12.90;60.10
10089;DHT22;51898;49.864;8.550;2023-04-09T09:29:40;12.80;57.90
10089;DHT22;51898;49.864;8.550;2023-04-09T09:32:43;12.90;57.20
10089;DHT22;51898;49.864;8.550;2023-04-09T09:35:46;13.00;57.50
10089;DHT22;51898;49.864;8.550;2023-04-09T09:38:51;13.00;58.50
10089;DHT22;51898;49.864;8.550;2023-04-09T09:42:06;12.90;59.20
10089;DHT22;51898;49.864;8.550;2023-04-09T09:45:17;12.50;59.30
10089;DHT22;51898;49.864;8.550;2023-04-09T09:48:19;12.30;59.90
10089;DHT22;51898;49.864;8.550;2023-04-09T09:51:24;12.70;60.00
10089;DHT22;51898;49.864;8.550;2023-04-09T09:54:30;13.00;59.10
10089;DHT22;51898;49.864;8.550;2023-04-09T09:57:41;13.00;58.90
10089;DHT22;51898;49.864;8.550;2023-04-09T10:00:45;13.20;58.30
10089;DHT22;51898;49.864;8.550;2023-04-09T10:03:49;13.20;55.30
10089;DHT22;51898;49.864;8.550;2023-04-09T10:06:52;13.20;55.70
10089;DHT22;51898;49.864;8.550;2023-04-09T10:09:55;13.70;56.20
10089;DHT22;51898;49.864;8.550;2023-04-09T10:12:58;14.10;51.80
10089;DHT22;51898;49.864;8.550;2023-04-09T10:16:01;14.30;52.40
10089;DHT22;51898;49.864;8.550;2023-04-09T10:19:03;14.30;49.30
10089;DHT22;51898;49.864;8.550;2023-04-09T10:22:12;14.40;48.30
10089;DHT22;51898;49.864;8.550;2023-04-09T10:25:16;14.40;49.30
10089;DHT22;51898;49.864;8.550;2023-04-09T10:28:18;14.20;49.10
10089;DHT22;51898;49.864;8.550;2023-04-09T10:31:20;14.20;49.20
10089;DHT22;51898;49.864;8.550;2023-04-09T10:34:26;14.20;50.50
10089;DHT22;51898;49.864;8.550;2023-04-09T10:37:29;14.50;53.30
10089;DHT22;51898;49.864;8.550;2023-04-09T10:40:30;14.60;53.10
10089;DHT22;51898;49.864;8.550;2023-04-09T10:43:35;14.80;52.00
10089;DHT22;51898;49.864;8.550;2023-04-09T10:46:36;14.90;50.90
10089;DHT22;51898;49.864;8.550;2023-04-09T10:49:40;15.00;51.20
10089;DHT22;51898;49.864;8.550;2023-04-09T10:52:42;15.00;49.80
10089;DHT22;51898;49.864;8.550;2023-04-09T10:55:48;15.00;49.70
10089;DHT22;51898;49.864;8.550;2023-04-09T10:58:53;15.00;49.60
10089;DHT22;51898;49.864;8.550;2023-04-09T11:01:54;14.60;49.60
10089;DHT22;51898;49.864;8.550;2023-04-09T11:05:11;14.70;46.80
10089;DHT22;51898;49.864;8.550;2023-04-09T11:08:18;14.90;46.70
10089;DHT22;51898;49.864;8.550;2023-04-09T11:11:25;14.90;45.70
10089;DHT22;51898;49.864;8.550;2023-04-09T11:14:27;14.70;47.60
10089;DHT22;51898;49.864;8.550;2023-04-09T11:17:28;14.80;46.60
10089;DHT22;51898;49.864;8.550;2023-04-09T11:20:32;14.70;48.00
10089;DHT22;51898;49.864;8.550;2023-04-09T11:23:34;14.80;47.80
10089;DHT22;51898;49.864;8.550;2023-04-09T11:26:36;15.10;46.10
10089;DHT22;51898;49.864;8.550;2023-04-09T11:29:38;15.40;45.50
10089;DHT22;51898;49.864;8.550;2023-04-09T11:32:39;15.50;45.80
10089;DHT22;51898;49.864;8.550;2023-04-09T11:35:42;15.50;45.20
10089;DHT22;51898;49.864;8.550;2023-04-09T11:38:47;14.90;44.70
10089;DHT22;51898;49.864;8.550;2023-04-09T11:41:50;14.20;45.10
10089;DHT22;51898;49.864;8.550;2023-04-09T11:44:52;14.00;45.40
10089;DHT22;51898;49.864;8.550;2023-04-09T11:47:54;14.00;45.90
10089;DHT22;51898;49.864;8.550;2023-04-09T11:50:57;14.00;46.20
10089;DHT22;51898;49.864;8.550;2023-04-09T11:54:02;14.30;46.60
10089;DHT22;51898;49.864;8.550;2023-04-09T11:57:04;14.70;46.00
10089;DHT22;51898;49.864;8.550;2023-04-09T12:00:13;15.00;44.30
10089;DHT22;51898;49.864;8.550;2023-04-09T12:03:15;15.40;43.80
10089;DHT22;51898;49.864;8.550;2023-04-09T12:06:19;15.40;44.40
10089;DHT22;51898;49.864;8.550;2023-04-09T12:09:22;15.20;42.90
10089;DHT22;51898;49.864;8.550;2023-04-09T12:12:23;14.70;43.40
10089;DHT22;51898;49.864;8.550;2023-04-09T12:15:25;14.70;44.40
10089;DHT22;51898;49.864;8.550;2023-04-09T12:18:27;14.30;44.40
10089;DHT22;51898;49.864;8.550;2023-04-09T12:21:51;14.40;43.60
10089;DHT22;51898;49.864;8.550;2023-04-09T12:24:53;14.70;43.90
10089;DHT22;51898;49.864;8.550;2023-04-09T12:27:56;14.90;43.90
10089;DHT22;51898;49.864;8.550;2023-04-09T12:30:58;14.80;43.60
10089;DHT22;51898;49.864;8.550;2023-04-09T12:34:00;14.40;44.50
10089;DHT22;51898;49.864;8.550;2023-04-09T12:37:02;14.40;44.10
10089;DHT22;51898;49.864;8.550;2023-04-09T12:40:03;14.20;45.30
10089;DHT22;51898;49.864;8.550;2023-04-09T12:43:05;14.30;46.40
10089;DHT22;51898;49.864;8.550;2023-04-09T12:46:07;14.70;45.20
10089;DHT22;51898;49.864;8.550;2023-04-09T12:49:09;14.70;43.70
10089;DHT22;51898;49.864;8.550;2023-04-09T12:52:11;14.70;44.50
10089;DHT22;51898;49.864;8.550;2023-04-09T12:55:14;14.90;44.90
10089;DHT22;51898;49.864;8.550;2023-04-09T12:58:16;15.00;43.30
10089;DHT22;51898;49.864;8.550;2023-04-09T13:01:18;14.90;44.30
10089;DHT22;51898;49.864;8.550;2023-04-09T13:04:19;15.20;43.80
10089;DHT22;51898;49.864;8.550;2023-04-09T13:07:21;15.10;43.10
10089;DHT22;51898;49.864;8.550;2023-04-09T13:10:23;15.10;43.70
10089;DHT22;51898;49.864;8.550;2023-04-09T13:13:25;15.60;43.40
10089;DHT22;51898;49.864;8.550;2023-04-09T13:16:27;15.60;41.90
10089;DHT22;51898;49.864;8.550;2023-04-09T13:19:29;15.40;42.50
10089;DHT22;51898;49.864;8.550;2023-04-09T13:22:30;15.20;43.00
10089;DHT22;51898;49.864;8.550;2023-04-09T13:25:32;15.20;42.80
10089;DHT22;51898;49.864;8.550;2023-04-09T13:28:36;15.20;43.00
10089;DHT22;51898;49.864;8.550;2023-04-09T13:31:38;15.20;43.50
10089;DHT22;51898;49.864;8.550;2023-04-09T13:34:40;15.40;42.60
10089;DHT22;51898;49.864;8.550;2023-04-09T13:37:42;15.40;42.80
10089;DHT22;51898;49.864;8.550;2023-04-09T13:40:43;15.40;42.90
10089;DHT22;51898;49.864;8.550;2023-04-09T13:43:45;15.30;42.90
10089;DHT22;51898;49.864;8.550;2023-04-09T13:46:46;15.30;42.60
10089;DHT22;51898;49.864;8.550;2023-04-09T13:49:48;15.50;43.20
10089;DHT22;51898;49.864;8.550;2023-04-09T13:52:52;15.90;41.50
10089;DHT22;51898;49.864;8.550;2023-04-09T13:55:53;16.10;41.50
10089;DHT22;51898;49.864;8.550;2023-04-09T13:58:55;16.30;42.00
10089;DHT22;51898;49.864;8.550;2023-04-09T14:01:56;16.80;41.10
10089;DHT22;51898;49.864;8.550;2023-04-09T14:04:58;17.20;41.30
10089;DHT22;51898;49.864;8.550;2023-04-09T14:08:04;17.60;39.80
10089;DHT22;51898;49.864;8.550;2023-04-09T14:11:06;18.00;38.60
10089;DHT22;51898;49.864;8.550;2023-04-09T14:14:08;18.20;39.30
10089;DHT22;51898;49.864;8.550;2023-04-09T14:17:09;18.60;38.00
10089;DHT22;51898;49.864;8.550;2023-04-09T14:20:11;18.60;38.70
10089;DHT22;51898;49.864;8.550;2023-04-09T14:23:13;18.40;37.80
10089;DHT22;51898;49.864;8.550;2023-04-09T14:26:14;18.00;38.90
10089;DHT22;51898;49.864;8.550;2023-04-09T14:29:21;18.00;40.00
10089;DHT22;51898;49.864;8.550;2023-04-09T14:32:23;18.20;38.10
10089;DHT22;51898;49.864;8.550;2023-04-09T14:35:25;18.40;38.60
10089;DHT22;51898;49.864;8.550;2023-04-09T14:38:27;18.50;38.70
10089;DHT22;51898;49.864;8.550;2023-04-09T14:41:28;18.80;37.70
10089;DHT22;51898;49.864;8.550;2023-04-09T14:44:30;18.90;37.40
10089;DHT22;51898;49.864;8.550;2023-04-09T14:47:32;19.10;37.10
10089;DHT22;51898;49.864;8.550;2023-04-09T14:50:34;19.10;37.90
10089;DHT22;51898;49.864;8.550;2023-04-09T14:53:37;19.00;36.90
10089;DHT22;51898;49.864;8.550;2023-04-09T14:56:38;19.00;38.10
10089;DHT22;51898;49.864;8.550;2023-04-09T14:59:40;19.20;36.80
10089;DHT22;51898;49.864;8.550;2023-04-09T15:02:42;19.30;37.60
10089;DHT22;51898;49.864;8.550;2023-04-09T15:05:44;19.30;37.40
10089;DHT22;51898;49.864;8.550;2023-04-09T15:08:46;19.20;37.30
10089;DHT22;51898;49.864;8.550;2023-04-09T15:11:48;19.10;36.70
10089;DHT22;51898;49.864;8.550;2023-04-09T15:14:49;19.10;36.90
10089;DHT22;51898;49.864;8.550;2023-04-09T15:17:51;18.80;36.40
10089;DHT22;51898;49.864;8.550;2023-04-09T15:20:53;18.30;36.40
10089;DHT22;51898;49.864;8.550;2023-04-09T15:23:54;17.70;37.00
10089;DHT22;51898;49.864;8.550;2023-04-09T15:26:59;17.60;36.80
10089;DHT22;51898;49.864;8.550;2023-04-09T15:30:02;17.30;38.20
10089;DHT22;51898;49.864;8.550;2023-04-09T15:33:04;17.60;36.80
10089;DHT22;51898;49.864;8.550;2023-04-09T15:36:06;17.70;36.60
10089;DHT22;51898;49.864;8.550;2023-04-09T15:39:08;17.70;37.90
10089;DHT22;51898;49.864;8.550;2023-04-09T15:42:10;17.90;36.70
10089;DHT22;51898;49.864;8.550;2023-04-09T15:45:15;18.00;37.30
10089;DHT22;51898;49.864;8.550;2023-04-09T15:48:18;17.70;37.60
10089;DHT22;51898;49.864;8.550;2023-04-09T15:51:20;17.30;38.20
10089;DHT22;51898;49.864;8.550;2023-04-09T15:54:21;16.80;39.80
10089;DHT22;51898;49.864;8.550;2023-04-09T15:57:23;16.30;40.60
10089;DHT22;51898;49.864;8.550;2023-04-09T16:00:25;16.00;41.50
10089;DHT22;51898;49.864;8.550;2023-04-09T16:03:28;15.80;40.90
10089;DHT22;51898;49.864;8.550;2023-04-09T16:06:29;16.10;40.80
10089;DHT22;51898;49.864;8.550;2023-04-09T16:09:31;16.60;39.60
10089;DHT22;51898;49.864;8.550;2023-04-09T16:12:32;17.00;38.30
10089;DHT22;51898;49.864;8.550;2023-04-09T16:15:34;17.50;38.00
10089;DHT22;51898;49.864;8.550;2023-04-09T16:18:36;17.70;38.40
10089;DHT22;51898;49.864;8.550;2023-04-09T16:21:38;17.80;38.20
10089;DHT22;51898;49.864;8.550;2023-04-09T16:24:44;17.90;37.30
10089;DHT22;51898;49.864;8.550;2023-04-09T16:27:46;18.10;37.30
10089;DHT22;51898;49.864;8.550;2023-04-09T16:30:51;18.20;37.20
10089;DHT22;51898;49.864;8.550;2023-04-09T16:33:53;18.50;36.90
10089;DHT22;51898;49.864;8.550;2023-04-09T16:36:55;18.90;36.40
10089;DHT22;51898;49.864;8.550;2023-04-09T16:39:57;19.40;35.20
10089;DHT22;51898;49.864;8.550;2023-04-09T16:43:00;20.20;35.00
10089;DHT22;51898;49.864;8.550;2023-04-09T16:46:02;21.00;33.20
10089;DHT22;51898;49.864;8.550;2023-04-09T16:49:06;21.60;32.90
10089;DHT22;51898;49.864;8.550;2023-04-09T16:52:08;21.90;32.90
10089;DHT22;51898;49.864;8.550;2023-04-09T16:55:10;22.50;31.90
10089;DHT22;51898;49.864;8.550;2023-04-09T16:58:11;23.30;31.00
10089;DHT22;51898;49.864;8.550;2023-04-09T17:01:13;23.70;30.70
10089;DHT22;51898;49.864;8.550;2023-04-09T17:04:15;23.70;29.90
10089;DHT22;51898;49.864;8.550;2023-04-09T17:07:16;23.80;30.50
10089;DHT22;51898;49.864;8.550;2023-04-09T17:10:18;23.50;31.00
10089;DHT22;51898;49.864;8.550;2023-04-09T17:13:20;23.30;31.50
10089;DHT22;51898;49.864;8.550;2023-04-09T17:16:22;23.40;31.80
10089;DHT22;51898;49.864;8.550;2023-04-09T17:19:23;23.30;32.10
10089;DHT22;51898;49.864;8.550;2023-04-09T17:22:25;23.30;31.80
10089;DHT22;51898;49.864;8.550;2023-04-09T17:25:26;23.10;30.70
10089;DHT22;51898;49.864;8.550;2023-04-09T17:28:28;22.90;31.00
10089;DHT22;51898;49.864;8.550;2023-04-09T17:31:30;22.70;31.20
10089;DHT22;51898;49.864;8.550;2023-04-09T17:34:31;22.50;31.70
10089;DHT22;51898;49.864;8.550;2023-04-09T17:37:33;22.30;31.80
10089;DHT22;51898;49.864;8.550;2023-04-09T17:40:35;22.40;32.00
10089;DHT22;51898;49.864;8.550;2023-04-09T17:43:37;22.30;32.30
10089;DHT22;51898;49.864;8.550;2023-04-09T17:46:38;22.10;32.90
10089;DHT22;51898;49.864;8.550;2023-04-09T17:49:40;21.70;33.20
10089;DHT22;51898;49.864;8.550;2023-04-09T17:52:42;20.70;33.80
10089;DHT22;51898;49.864;8.550;2023-04-09T17:55:47;19.80;34.90
10089;DHT22;51898;49.864;8.550;2023-04-09T17:58:49;19.10;36.10
10089;DHT22;51898;49.864;8.550;2023-04-09T18:01:51;18.10;37.10
10089;DHT22;51898;49.864;8.550;2023-04-09T18:04:57;17.30;38.80
10089;DHT22;51898;49.864;8.550;2023-04-09T18:07:59;16.60;40.30
10089;DHT22;51898;49.864;8.550;2023-04-09T18:11:02;15.90;42.20
10089;DHT22;51898;49.864;8.550;2023-04-09T18:14:13;15.30;43.20
10089;DHT22;51898;49.864;8.550;2023-04-09T18:17:15;14.90;44.70
10089;DHT22;51898;49.864;8.550;2023-04-09T18:20:17;14.40;45.60
10089;DHT22;51898;49.864;8.550;2023-04-09T18:23:19;14.00;46.90
10089;DHT22;51898;49.864;8.550;2023-04-09T18:26:21;13.80;47.10
10089;DHT22;51898;49.864;8.550;2023-04-09T18:29:23;13.50;48.10
10089;DHT22;51898;49.864;8.550;2023-04-09T18:32:24;13.20;49.20
10089;DHT22;51898;49.864;8.550;2023-04-09T18:35:27;13.10;49.00
10089;DHT22;51898;49.864;8.550;2023-04-09T18:38:29;12.90;49.50
10089;DHT22;51898;49.864;8.550;2023-04-09T18:41:30;12.70;50.10
10089;DHT22;51898;49.864;8.550;2023-04-09T18:44:32;12.60;50.00
10089;DHT22;51898;49.864;8.550;2023-04-09T18:47:36;12.50;50.40
10089;DHT22;51898;49.864;8.550;2023-04-09T18:50:38;12.30;51.40
10089;DHT22;51898;49.864;8.550;2023-04-09T18:53:39;12.20;51.70
10089;DHT22;51898;49.864;8.550;2023-04-09T18:56:42;12.00;52.80
10089;DHT22;51898;49.864;8.550;2023-04-09T18:59:46;11.90;52.90
10089;DHT22;51898;49.864;8.550;2023-04-09T19:02:48;11.80;52.90
10089;DHT22;51898;49.864;8.550;2023-04-09T19:05:50;11.70;52.50
10089;DHT22;51898;49.864;8.550;2023-04-09T19:08:52;11.70;51.60
10089;DHT22;51898;49.864;8.550;2023-04-09T19:11:58;11.60;50.50
10089;DHT22;51898;49.864;8.550;2023-04-09T19:15:00;11.60;50.30
10089;DHT22;51898;49.864;8.550;2023-04-09T19:18:02;11.60;49.80
10089;DHT22;51898;49.864;8.550;2023-04-09T19:21:06;11.60;49.80
10089;DHT22;51898;49.864;8.550;2023-04-09T19:24:09;11.50;49.80
10089;DHT22;51898;49.864;8.550;2023-04-09T19:27:10;11.40;50.00
10089;DHT22;51898;49.864;8.550;2023-04-09T19:30:13;11.30;50.30
10089;DHT22;51898;49.864;8.550;2023-04-09T19:33:15;11.20;50.50